Terminal Aerodrome Forecast
Issued by NWS Atlanta, GA

Home | Current Version | Previous Version | Text Only | Print | Product List | Glossary On
Versions: 1 2 3 4 5 6 7 8 9 10 11 12 13 14 15 16 17 18 19 20 21 22 23
000
FTUS42 KFFC 301739
TAFCSG
TAF
KCSG 301739Z 3018/3118 22010KT P6SM FEW025 SCT060
      TEMPO 3020/3023 4SM TSRA BKN025CB
     FM310100 09008KT P6SM SCT030 BKN100
     FM310600 09007KT P6SM BKN005 OVC030
     FM311400 09007KT 5SM BR BKN010
     FM311700 05006KT P6SM OVC025=

USA.gov is the U.S. government's official web portal to all federal, state and local government web resources and services.